• Join FlightAware (Why Join?)
  • Login
  • US Flag GB Flag 
02:50 EST


 

Airport Tracker/Info


-or-


 

Live Flight TrackerFlight Track Log ✈ CTL309 ✈ 25-Apr-2013 ✈ KBKL - KOSU

Flight Track Log - Related Links

Times and Time Zones

All times are in EDT time to prevent confusion due to time zone crossing. See the CTL309 flight status page for this flight to view local times or setup timezone preferences in your user account.

Time Position Orientation Groundspeed Altitude Reporting Facility
EDT Latitude Longitude Course Direction KTS MPH feet Rate Location/Type
20:39 41.5106 -81.6978 291° West 127 146 700  Level Cleveland Center
20:39 41.5144 -81.7117 291° West 133 153 1,000 608 Climbing Cleveland Center
20:40 41.5456 -81.7483 319° Northwest 156 180 1,500 694 Climbing Cleveland Center
20:41 41.5511 -81.7956 279° West 135 155 2,400 843 Climbing Cleveland Center
20:42 41.5589 -81.8458 282° West 131 151 3,200 836 Climbing Cleveland Center
20:43 41.5647 -81.8931 279° West 123 142 4,100 843 Climbing Cleveland Center
20:44 41.5642 -81.9403 269° West 136 157 4,900 793 Climbing Cleveland Center
20:45 41.5428 -81.9842 237° Southwest 135 155 5,700 563 Climbing Cleveland Center
20:47 41.5028 -82.0136 209° Southwest 166 191 6,100 189 Climbing Cleveland Center
20:48 41.4608 -82.0461 210° Southwest 173 199 6,100 -50 Level Cleveland Center
20:49 41.4186 -82.0811 212° Southwest 171 197 6,000  Descending Cleveland Center
20:50 41.3786 -82.1161 213° Southwest 173 199 6,100  Climbing Cleveland Center
20:51 41.3322 -82.1483 208° Southwest 177 204 6,000 -104 Descending Cleveland Center
20:51 41.2964 -82.1750 209° Southwest 175 201 5,900 -52 Descending Cleveland Center
20:53 41.2522 -82.2128 213° Southwest 171 197 5,900  Level Cleveland Center
20:55 41.1550 -82.2817 208° Southwest 167 192 5,900 58 Level Indianapolis Center
20:56 41.1133 -82.3117 208° Southwest 168 193 6,100  Climbing Indianapolis Center
20:57 41.0731 -82.3450 212° Southwest 169 194 5,900 -98 Descending Indianapolis Center
20:58 41.0331 -82.3778 212° Southwest 168 193 5,900 49 Level Indianapolis Center
20:59 40.9928 -82.4092 210° Southwest 167 192 6,000  Climbing Indianapolis Center
21:00 40.9514 -82.4403 210° Southwest 168 193 5,900 49 Descending Indianapolis Center
21:01 40.9111 -82.4725 211° Southwest 169 194 6,100 98 Climbing Indianapolis Center
21:02 40.8692 -82.5031 209° Southwest 169 194 6,100  Level Indianapolis Center
21:03 40.8272 -82.5317 207° Southwest 169 194 6,100 49 Level Indianapolis Center
21:04 40.7867 -82.5644 211° Southwest 169 194 6,200  Climbing Indianapolis Center
21:05 40.7356 -82.5967 206° Southwest 170 196 6,100  Descending Indianapolis Center
21:06 40.6950 -82.6286 211° Southwest 170 196 6,200 49 Climbing Indianapolis Center
21:07 40.6536 -82.6586 209° Southwest 169 194 6,200 -98 Level Indianapolis Center
21:08 40.6122 -82.6911 211° Southwest 170 196 6,000 -98 Descending Indianapolis Center
21:09 40.5681 -82.7206 207° Southwest 173 199 6,000 98 Level Indianapolis Center
21:10 40.5261 -82.7528 210° Southwest 174 200 6,200 98 Climbing Indianapolis Center
21:11 40.4839 -82.7853 210° Southwest 174 200 6,200 -61 Level Indianapolis Center
21:12 40.4550 -82.8086 212° Southwest 175 201 6,100  Descending Indianapolis Center
21:12 40.4411 -82.8139 196° South 172 198 6,200 -143 Climbing Indianapolis Center
21:13 40.4244 -82.8272 211° Southwest 171 197 6,000 -197 Descending Indianapolis Center
21:13 40.3969 -82.8392 198° South 171 197 6,000 -152 Level Indianapolis Center
21:14 40.3678 -82.8617 210° Southwest 169 194 5,800 -194 Descending Indianapolis Center
21:14 40.3544 -82.8669 197° South 170 196 5,800 -492 Level Indianapolis Center
21:15 40.3264 -82.8872 209° Southwest 172 198 5,300 -590 Descending Indianapolis Center
21:15 40.3103 -82.8956 202° Southwest 172 198 5,200 -500 Descending Indianapolis Center
21:16 40.2825 -82.9175 211° Southwest 180 207 4,800 -295 Descending Indianapolis Center
21:16 40.2658 -82.9256 200° South 176 203 4,900 -689 Climbing Indianapolis Center
21:17 40.2386 -82.9481 212° Southwest 176 203 4,100 -1,082 Descending Indianapolis Center
21:17 40.2222 -82.9567 202° Southwest 177 204 3,800 -1,082 Descending Indianapolis Center
21:18 40.1883 -82.9806 208° Southwest 191 220 3,000 -871 Descending Indianapolis Center
21:19 40.1733 -82.9872 199° South 185 213 2,900 -1,000 Descending Indianapolis Center
21:19 40.1383 -83.0075 204° Southwest 193 222 2,000 -984 Descending Indianapolis Center
21:20 40.1239 -83.0144 200° South 189 217 1,900 -393 Descending Indianapolis Center
21:20 40.0950 -83.0269 198° South 159 183 1,600 -393 Descending Indianapolis Center
21:21 40.0833 -83.0339 204° Southwest 165 190 1,500 -735 Descending Indianapolis Center
21:21 40.0786 -83.0525 252° West 102 117 1,000 -484 Descending Indianapolis Center
21:22 40.0808 -83.0719 279° West 130 150 1,000  Level Indianapolis Center